sensor_id;sensor_type;location;lat;lon;timestamp;temperature;humidity
15930;DHT22;8064;51.142;4.780;2022-09-02T00:00:12;19.20;67.40
15930;DHT22;8064;51.142;4.780;2022-09-02T00:02:38;19.20;67.60
15930;DHT22;8064;51.142;4.780;2022-09-02T00:05:04;19.20;67.70
15930;DHT22;8064;51.142;4.780;2022-09-02T00:07:31;19.10;67.70
15930;DHT22;8064;51.142;4.780;2022-09-02T00:09:57;19.10;67.70
15930;DHT22;8064;51.142;4.780;2022-09-02T00:12:25;19.10;67.80
15930;DHT22;8064;51.142;4.780;2022-09-02T00:14:51;19.00;67.90
15930;DHT22;8064;51.142;4.780;2022-09-02T00:17:16;19.00;68.00
15930;DHT22;8064;51.142;4.780;2022-09-02T00:19:42;19.00;68.10
15930;DHT22;8064;51.142;4.780;2022-09-02T00:22:08;18.90;68.10
15930;DHT22;8064;51.142;4.780;2022-09-02T00:24:34;18.90;68.20
15930;DHT22;8064;51.142;4.780;2022-09-02T00:27:00;18.90;68.40
15930;DHT22;8064;51.142;4.780;2022-09-02T00:29:26;18.80;68.40
15930;DHT22;8064;51.142;4.780;2022-09-02T00:31:53;18.80;68.50
15930;DHT22;8064;51.142;4.780;2022-09-02T00:34:19;18.80;68.70
15930;DHT22;8064;51.142;4.780;2022-09-02T00:36:45;18.80;68.90
15930;DHT22;8064;51.142;4.780;2022-09-02T00:39:11;18.70;69.10
15930;DHT22;8064;51.142;4.780;2022-09-02T00:41:39;18.70;69.20
15930;DHT22;8064;51.142;4.780;2022-09-02T00:44:08;18.70;69.40
15930;DHT22;8064;51.142;4.780;2022-09-02T00:46:34;18.60;69.30
15930;DHT22;8064;51.142;4.780;2022-09-02T00:49:13;18.60;69.50
15930;DHT22;8064;51.142;4.780;2022-09-02T00:51:49;18.60;69.60
15930;DHT22;8064;51.142;4.780;2022-09-02T00:54:16;18.50;69.70
15930;DHT22;8064;51.142;4.780;2022-09-02T00:56:44;18.50;69.80
15930;DHT22;8064;51.142;4.780;2022-09-02T00:59:35;18.50;70.00
15930;DHT22;8064;51.142;4.780;2022-09-02T01:02:04;18.40;70.10
15930;DHT22;8064;51.142;4.780;2022-09-02T01:04:32;18.40;70.00
15930;DHT22;8064;51.142;4.780;2022-09-02T01:06:58;18.40;70.20
15930;DHT22;8064;51.142;4.780;2022-09-02T01:09:24;18.40;70.30
15930;DHT22;8064;51.142;4.780;2022-09-02T01:11:49;18.30;70.50
15930;DHT22;8064;51.142;4.780;2022-09-02T01:14:20;18.30;70.70
15930;DHT22;8064;51.142;4.780;2022-09-02T01:16:49;18.30;70.80
15930;DHT22;8064;51.142;4.780;2022-09-02T01:19:36;18.30;70.90
15930;DHT22;8064;51.142;4.780;2022-09-02T01:22:14;18.30;71.30
15930;DHT22;8064;51.142;4.780;2022-09-02T01:24:40;18.20;71.10
15930;DHT22;8064;51.142;4.780;2022-09-02T01:27:06;18.20;71.10
15930;DHT22;8064;51.142;4.780;2022-09-02T01:29:31;18.20;71.20
15930;DHT22;8064;51.142;4.780;2022-09-02T01:31:57;18.10;71.20
15930;DHT22;8064;51.142;4.780;2022-09-02T01:34:23;18.10;71.40
15930;DHT22;8064;51.142;4.780;2022-09-02T01:36:50;18.10;71.50
15930;DHT22;8064;51.142;4.780;2022-09-02T01:39:16;18.10;71.60
15930;DHT22;8064;51.142;4.780;2022-09-02T01:41:42;18.10;71.70
15930;DHT22;8064;51.142;4.780;2022-09-02T01:44:09;18.00;71.70
15930;DHT22;8064;51.142;4.780;2022-09-02T01:46:35;18.00;71.80
15930;DHT22;8064;51.142;4.780;2022-09-02T01:49:02;18.00;71.80
15930;DHT22;8064;51.142;4.780;2022-09-02T01:51:27;18.00;71.80
15930;DHT22;8064;51.142;4.780;2022-09-02T01:53:53;18.00;71.80
15930;DHT22;8064;51.142;4.780;2022-09-02T01:56:19;18.00;72.00
15930;DHT22;8064;51.142;4.780;2022-09-02T01:58:45;17.90;71.90
15930;DHT22;8064;51.142;4.780;2022-09-02T02:01:10;17.90;72.90
15930;DHT22;8064;51.142;4.780;2022-09-02T02:03:37;17.90;72.30
15930;DHT22;8064;51.142;4.780;2022-09-02T02:06:21;17.90;72.40
15930;DHT22;8064;51.142;4.780;2022-09-02T02:08:47;17.90;72.80
15930;DHT22;8064;51.142;4.780;2022-09-02T02:11:30;17.80;72.50
15930;DHT22;8064;51.142;4.780;2022-09-02T02:13:56;17.80;72.90
15930;DHT22;8064;51.142;4.780;2022-09-02T02:16:22;17.80;72.80
15930;DHT22;8064;51.142;4.780;2022-09-02T02:18:47;17.80;72.90
15930;DHT22;8064;51.142;4.780;2022-09-02T02:21:13;17.80;73.00
15930;DHT22;8064;51.142;4.780;2022-09-02T02:23:39;17.70;72.90
15930;DHT22;8064;51.142;4.780;2022-09-02T02:26:05;17.70;73.00
15930;DHT22;8064;51.142;4.780;2022-09-02T02:28:32;17.70;73.00
15930;DHT22;8064;51.142;4.780;2022-09-02T02:30:58;17.70;73.10
15930;DHT22;8064;51.142;4.780;2022-09-02T02:33:25;17.60;73.10
15930;DHT22;8064;51.142;4.780;2022-09-02T02:35:53;17.60;73.20
15930;DHT22;8064;51.142;4.780;2022-09-02T02:38:19;17.60;73.30
15930;DHT22;8064;51.142;4.780;2022-09-02T02:40:45;17.60;73.50
15930;DHT22;8064;51.142;4.780;2022-09-02T02:43:10;17.60;73.50
15930;DHT22;8064;51.142;4.780;2022-09-02T02:45:36;17.50;73.50
15930;DHT22;8064;51.142;4.780;2022-09-02T02:48:03;17.50;73.60
15930;DHT22;8064;51.142;4.780;2022-09-02T02:50:29;17.50;73.70
15930;DHT22;8064;51.142;4.780;2022-09-02T02:52:55;17.50;73.90
15930;DHT22;8064;51.142;4.780;2022-09-02T02:55:22;17.50;74.00
15930;DHT22;8064;51.142;4.780;2022-09-02T02:57:50;17.50;74.10
15930;DHT22;8064;51.142;4.780;2022-09-02T03:00:18;17.40;74.10
15930;DHT22;8064;51.142;4.780;2022-09-02T03:02:45;17.40;74.20
15930;DHT22;8064;51.142;4.780;2022-09-02T03:05:12;17.40;74.30
15930;DHT22;8064;51.142;4.780;2022-09-02T03:07:38;17.40;74.40
15930;DHT22;8064;51.142;4.780;2022-09-02T03:10:06;17.40;74.50
15930;DHT22;8064;51.142;4.780;2022-09-02T03:12:33;17.40;74.60
15930;DHT22;8064;51.142;4.780;2022-09-02T03:14:59;17.40;74.70
15930;DHT22;8064;51.142;4.780;2022-09-02T03:17:26;17.40;74.70
15930;DHT22;8064;51.142;4.780;2022-09-02T03:19:52;17.40;74.80
15930;DHT22;8064;51.142;4.780;2022-09-02T03:22:19;17.40;75.00
15930;DHT22;8064;51.142;4.780;2022-09-02T03:24:44;17.40;75.20
15930;DHT22;8064;51.142;4.780;2022-09-02T03:27:10;17.40;75.20
15930;DHT22;8064;51.142;4.780;2022-09-02T03:29:36;17.40;75.30
15930;DHT22;8064;51.142;4.780;2022-09-02T03:32:03;17.40;75.30
15930;DHT22;8064;51.142;4.780;2022-09-02T03:34:31;17.40;75.40
15930;DHT22;8064;51.142;4.780;2022-09-02T03:36:56;17.40;75.40
15930;DHT22;8064;51.142;4.780;2022-09-02T03:39:22;17.40;75.40
15930;DHT22;8064;51.142;4.780;2022-09-02T03:41:48;17.40;75.50
15930;DHT22;8064;51.142;4.780;2022-09-02T03:44:15;17.30;75.30
15930;DHT22;8064;51.142;4.780;2022-09-02T03:46:41;17.40;75.50
15930;DHT22;8064;51.142;4.780;2022-09-02T03:49:07;17.40;75.60
15930;DHT22;8064;51.142;4.780;2022-09-02T03:51:33;17.40;75.60
15930;DHT22;8064;51.142;4.780;2022-09-02T03:53:59;17.40;75.70
15930;DHT22;8064;51.142;4.780;2022-09-02T03:56:28;17.40;75.70
15930;DHT22;8064;51.142;4.780;2022-09-02T03:58:54;17.40;75.70
15930;DHT22;8064;51.142;4.780;2022-09-02T04:01:22;17.40;75.90
15930;DHT22;8064;51.142;4.780;2022-09-02T04:03:49;17.40;76.10
15930;DHT22;8064;51.142;4.780;2022-09-02T04:06:17;17.40;76.20
15930;DHT22;8064;51.142;4.780;2022-09-02T04:08:43;17.40;76.20
15930;DHT22;8064;51.142;4.780;2022-09-02T04:11:11;17.40;76.20
15930;DHT22;8064;51.142;4.780;2022-09-02T04:13:39;17.40;76.20
15930;DHT22;8064;51.142;4.780;2022-09-02T04:16:07;17.40;76.30
15930;DHT22;8064;51.142;4.780;2022-09-02T04:18:33;17.40;76.60
15930;DHT22;8064;51.142;4.780;2022-09-02T04:20:59;17.40;76.70
15930;DHT22;8064;51.142;4.780;2022-09-02T04:23:26;17.50;76.80
15930;DHT22;8064;51.142;4.780;2022-09-02T04:25:53;17.50;76.80
15930;DHT22;8064;51.142;4.780;2022-09-02T04:28:19;17.50;76.70
15930;DHT22;8064;51.142;4.780;2022-09-02T04:30:45;17.50;76.70
15930;DHT22;8064;51.142;4.780;2022-09-02T04:33:11;17.50;76.70
15930;DHT22;8064;51.142;4.780;2022-09-02T04:35:41;17.50;76.60
15930;DHT22;8064;51.142;4.780;2022-09-02T04:38:07;17.50;76.70
15930;DHT22;8064;51.142;4.780;2022-09-02T04:40:33;17.50;76.70
15930;DHT22;8064;51.142;4.780;2022-09-02T04:42:59;17.50;76.80
15930;DHT22;8064;51.142;4.780;2022-09-02T04:45:25;17.50;76.90
15930;DHT22;8064;51.142;4.780;2022-09-02T04:47:51;17.50;77.00
15930;DHT22;8064;51.142;4.780;2022-09-02T04:50:17;17.50;77.10
15930;DHT22;8064;51.142;4.780;2022-09-02T04:52:42;17.50;77.10
15930;DHT22;8064;51.142;4.780;2022-09-02T04:55:09;17.50;77.20
15930;DHT22;8064;51.142;4.780;2022-09-02T04:57:35;17.50;77.30
15930;DHT22;8064;51.142;4.780;2022-09-02T05:00:04;17.60;77.40
15930;DHT22;8064;51.142;4.780;2022-09-02T05:02:31;17.60;77.50
15930;DHT22;8064;51.142;4.780;2022-09-02T05:04:57;17.60;77.40
15930;DHT22;8064;51.142;4.780;2022-09-02T05:07:23;17.70;77.50
15930;DHT22;8064;51.142;4.780;2022-09-02T05:09:49;17.70;77.40
15930;DHT22;8064;51.142;4.780;2022-09-02T05:12:15;17.70;77.40
15930;DHT22;8064;51.142;4.780;2022-09-02T05:14:42;17.70;77.40
15930;DHT22;8064;51.142;4.780;2022-09-02T05:17:08;17.80;77.40
15930;DHT22;8064;51.142;4.780;2022-09-02T05:19:34;17.80;77.50
15930;DHT22;8064;51.142;4.780;2022-09-02T05:22:00;17.80;77.50
15930;DHT22;8064;51.142;4.780;2022-09-02T05:24:26;17.80;77.50
15930;DHT22;8064;51.142;4.780;2022-09-02T05:26:53;17.90;77.60
15930;DHT22;8064;51.142;4.780;2022-09-02T05:29:19;17.90;77.60
15930;DHT22;8064;51.142;4.780;2022-09-02T05:31:47;17.90;77.60
15930;DHT22;8064;51.142;4.780;2022-09-02T05:34:14;17.90;77.60
15930;DHT22;8064;51.142;4.780;2022-09-02T05:36:40;18.00;77.70
15930;DHT22;8064;51.142;4.780;2022-09-02T05:39:06;18.00;77.70
15930;DHT22;8064;51.142;4.780;2022-09-02T05:41:32;18.00;77.70
15930;DHT22;8064;51.142;4.780;2022-09-02T05:43:59;18.00;77.70
15930;DHT22;8064;51.142;4.780;2022-09-02T05:46:27;18.00;77.70
15930;DHT22;8064;51.142;4.780;2022-09-02T05:48:54;18.00;77.80
15930;DHT22;8064;51.142;4.780;2022-09-02T05:51:42;18.00;77.80
15930;DHT22;8064;51.142;4.780;2022-09-02T05:54:12;18.10;78.00
15930;DHT22;8064;51.142;4.780;2022-09-02T05:56:39;18.10;78.00
15930;DHT22;8064;51.142;4.780;2022-09-02T05:59:05;18.10;78.00
15930;DHT22;8064;51.142;4.780;2022-09-02T06:01:33;18.10;78.10
15930;DHT22;8064;51.142;4.780;2022-09-02T06:04:00;18.20;79.00
15930;DHT22;8064;51.142;4.780;2022-09-02T06:06:28;18.20;78.30
15930;DHT22;8064;51.142;4.780;2022-09-02T06:08:54;18.30;78.30
15930;DHT22;8064;51.142;4.780;2022-09-02T06:11:19;18.30;78.30
15930;DHT22;8064;51.142;4.780;2022-09-02T06:13:47;18.40;78.40
15930;DHT22;8064;51.142;4.780;2022-09-02T06:16:17;18.40;78.40
15930;DHT22;8064;51.142;4.780;2022-09-02T06:18:44;18.50;78.50
15930;DHT22;8064;51.142;4.780;2022-09-02T06:21:10;18.50;78.40
15930;DHT22;8064;51.142;4.780;2022-09-02T06:23:37;18.60;78.40
15930;DHT22;8064;51.142;4.780;2022-09-02T06:26:06;18.60;78.30
15930;DHT22;8064;51.142;4.780;2022-09-02T06:28:33;18.70;78.40
15930;DHT22;8064;51.142;4.780;2022-09-02T06:30:59;18.70;78.20
15930;DHT22;8064;51.142;4.780;2022-09-02T06:33:24;18.70;78.10
15930;DHT22;8064;51.142;4.780;2022-09-02T06:35:50;18.80;78.20
15930;DHT22;8064;51.142;4.780;2022-09-02T06:38:17;18.80;78.10
15930;DHT22;8064;51.142;4.780;2022-09-02T06:40:46;18.90;78.00
15930;DHT22;8064;51.142;4.780;2022-09-02T06:43:12;19.00;78.00
15930;DHT22;8064;51.142;4.780;2022-09-02T06:45:39;19.10;78.70
15930;DHT22;8064;51.142;4.780;2022-09-02T06:48:05;19.20;78.60
15930;DHT22;8064;51.142;4.780;2022-09-02T06:50:31;19.30;77.60
15930;DHT22;8064;51.142;4.780;2022-09-02T06:52:57;19.40;77.50
15930;DHT22;8064;51.142;4.780;2022-09-02T06:55:23;19.50;77.40
15930;DHT22;8064;51.142;4.780;2022-09-02T06:57:49;19.70;77.40
15930;DHT22;8064;51.142;4.780;2022-09-02T07:00:15;19.90;77.20
15930;DHT22;8064;51.142;4.780;2022-09-02T07:02:41;20.20;77.10
15930;DHT22;8064;51.142;4.780;2022-09-02T07:05:07;20.40;76.60
15930;DHT22;8064;51.142;4.780;2022-09-02T07:07:36;20.60;76.10
15930;DHT22;8064;51.142;4.780;2022-09-02T07:10:06;20.90;75.70
15930;DHT22;8064;51.142;4.780;2022-09-02T07:12:35;21.10;75.50
15930;DHT22;8064;51.142;4.780;2022-09-02T07:15:02;21.30;75.30
15930;DHT22;8064;51.142;4.780;2022-09-02T07:17:28;21.50;75.80
15930;DHT22;8064;51.142;4.780;2022-09-02T07:19:54;21.70;74.70
15930;DHT22;8064;51.142;4.780;2022-09-02T07:22:24;21.90;74.30
15930;DHT22;8064;51.142;4.780;2022-09-02T07:24:50;22.10;73.40
15930;DHT22;8064;51.142;4.780;2022-09-02T07:27:16;22.30;72.90
15930;DHT22;8064;51.142;4.780;2022-09-02T07:29:42;22.50;72.50
15930;DHT22;8064;51.142;4.780;2022-09-02T07:32:12;22.60;73.10
15930;DHT22;8064;51.142;4.780;2022-09-02T07:34:37;22.80;72.60
15930;DHT22;8064;51.142;4.780;2022-09-02T07:37:03;23.00;71.10
15930;DHT22;8064;51.142;4.780;2022-09-02T07:39:30;23.10;70.70
15930;DHT22;8064;51.142;4.780;2022-09-02T07:41:56;23.20;70.40
15930;DHT22;8064;51.142;4.780;2022-09-02T07:44:22;23.30;70.20
15930;DHT22;8064;51.142;4.780;2022-09-02T07:46:49;23.20;69.70
15930;DHT22;8064;51.142;4.780;2022-09-02T07:49:16;23.20;69.40
15930;DHT22;8064;51.142;4.780;2022-09-02T07:51:45;23.20;69.30
15930;DHT22;8064;51.142;4.780;2022-09-02T07:54:14;23.30;69.30
15930;DHT22;8064;51.142;4.780;2022-09-02T07:56:40;23.30;69.30
15930;DHT22;8064;51.142;4.780;2022-09-02T07:59:08;23.40;69.20
15930;DHT22;8064;51.142;4.780;2022-09-02T08:01:35;23.40;69.00
15930;DHT22;8064;51.142;4.780;2022-09-02T08:04:01;23.50;68.80
15930;DHT22;8064;51.142;4.780;2022-09-02T08:06:27;23.60;68.80
15930;DHT22;8064;51.142;4.780;2022-09-02T08:08:55;23.60;68.50
15930;DHT22;8064;51.142;4.780;2022-09-02T08:11:21;23.80;68.40
15930;DHT22;8064;51.142;4.780;2022-09-02T08:13:48;24.00;68.30
15930;DHT22;8064;51.142;4.780;2022-09-02T08:16:14;24.20;68.00
15930;DHT22;8064;51.142;4.780;2022-09-02T08:18:40;24.40;67.80
15930;DHT22;8064;51.142;4.780;2022-09-02T08:21:06;24.60;67.40
15930;DHT22;8064;51.142;4.780;2022-09-02T08:23:32;24.90;67.00
15930;DHT22;8064;51.142;4.780;2022-09-02T08:25:59;25.10;67.00
15930;DHT22;8064;51.142;4.780;2022-09-02T08:28:25;25.30;65.90
15930;DHT22;8064;51.142;4.780;2022-09-02T08:30:52;25.50;65.40
15930;DHT22;8064;51.142;4.780;2022-09-02T08:33:19;25.80;65.60
15930;DHT22;8064;51.142;4.780;2022-09-02T08:35:45;25.90;65.10
15930;DHT22;8064;51.142;4.780;2022-09-02T08:38:12;26.10;64.70
15930;DHT22;8064;51.142;4.780;2022-09-02T08:40:40;26.20;63.20
15930;DHT22;8064;51.142;4.780;2022-09-02T08:43:24;26.40;62.80
15930;DHT22;8064;51.142;4.780;2022-09-02T08:45:52;26.40;62.00
15930;DHT22;8064;51.142;4.780;2022-09-02T08:48:21;26.30;63.10
15930;DHT22;8064;51.142;4.780;2022-09-02T08:50:51;26.30;62.50
15930;DHT22;8064;51.142;4.780;2022-09-02T08:55:57;26.20;61.90
15930;DHT22;8064;51.142;4.780;2022-09-02T08:58:27;26.10;61.80
15930;DHT22;8064;51.142;4.780;2022-09-02T09:12:39;26.50;60.60
15930;DHT22;8064;51.142;4.780;2022-09-02T09:18:16;27.00;59.40
15930;DHT22;8064;51.142;4.780;2022-09-02T09:20:44;27.10;59.90
15930;DHT22;8064;51.142;4.780;2022-09-02T09:26:08;27.40;58.90
15930;DHT22;8064;51.142;4.780;2022-09-02T09:28:46;27.60;58.50
15930;DHT22;8064;51.142;4.780;2022-09-02T09:31:17;27.70;58.00
15930;DHT22;8064;51.142;4.780;2022-09-02T09:36:52;27.80;57.50
15930;DHT22;8064;51.142;4.780;2022-09-02T09:42:12;27.90;57.10
15930;DHT22;8064;51.142;4.780;2022-09-02T09:44:40;27.90;56.90
15930;DHT22;8064;51.142;4.780;2022-09-02T09:47:14;27.90;56.90
15930;DHT22;8064;51.142;4.780;2022-09-02T09:49:42;27.80;56.70
15930;DHT22;8064;51.142;4.780;2022-09-02T09:52:08;27.70;56.90
15930;DHT22;8064;51.142;4.780;2022-09-02T09:54:33;27.70;57.00
15930;DHT22;8064;51.142;4.780;2022-09-02T09:57:19;27.80;56.90
15930;DHT22;8064;51.142;4.780;2022-09-02T09:59:46;28.00;56.80
15930;DHT22;8064;51.142;4.780;2022-09-02T10:02:25;28.20;56.50
15930;DHT22;8064;51.142;4.780;2022-09-02T10:04:54;28.50;56.20
15930;DHT22;8064;51.142;4.780;2022-09-02T10:10:21;28.90;55.40
15930;DHT22;8064;51.142;4.780;2022-09-02T10:12:49;29.20;54.90
15930;DHT22;8064;51.142;4.780;2022-09-02T10:15:26;29.40;55.10
15930;DHT22;8064;51.142;4.780;2022-09-02T10:31:51;29.70;53.50
15930;DHT22;8064;51.142;4.780;2022-09-02T10:42:15;30.10;51.70
15930;DHT22;8064;51.142;4.780;2022-09-02T10:47:35;30.10;51.40
15930;DHT22;8064;51.142;4.780;2022-09-02T10:50:19;30.10;51.60
15930;DHT22;8064;51.142;4.780;2022-09-02T10:53:00;30.20;51.70
15930;DHT22;8064;51.142;4.780;2022-09-02T10:55:45;30.40;51.40
15930;DHT22;8064;51.142;4.780;2022-09-02T10:58:35;30.50;51.00
15930;DHT22;8064;51.142;4.780;2022-09-02T11:01:05;30.50;51.00
15930;DHT22;8064;51.142;4.780;2022-09-02T11:06:21;30.30;50.90
15930;DHT22;8064;51.142;4.780;2022-09-02T11:08:52;30.40;50.20
15930;DHT22;8064;51.142;4.780;2022-09-02T11:14:12;30.30;49.80
15930;DHT22;8064;51.142;4.780;2022-09-02T11:16:46;30.20;50.10
15930;DHT22;8064;51.142;4.780;2022-09-02T11:19:15;30.30;49.80
15930;DHT22;8064;51.142;4.780;2022-09-02T11:24:38;30.20;48.90
15930;DHT22;8064;51.142;4.780;2022-09-02T11:27:38;30.10;48.80
15930;DHT22;8064;51.142;4.780;2022-09-02T11:30:10;30.10;48.80
15930;DHT22;8064;51.142;4.780;2022-09-02T11:35:23;29.90;48.50
15930;DHT22;8064;51.142;4.780;2022-09-02T11:54:18;29.20;48.60
15930;DHT22;8064;51.142;4.780;2022-09-02T11:56:49;29.20;48.80
15930;DHT22;8064;51.142;4.780;2022-09-02T12:02:36;29.10;48.70
15930;DHT22;8064;51.142;4.780;2022-09-02T12:11:01;29.10;48.90
15930;DHT22;8064;51.142;4.780;2022-09-02T12:21:31;29.10;48.10
15930;DHT22;8064;51.142;4.780;2022-09-02T12:24:01;29.10;48.20
15930;DHT22;8064;51.142;4.780;2022-09-02T12:31:54;29.10;47.90
15930;DHT22;8064;51.142;4.780;2022-09-02T12:36:48;28.90;48.10
15930;DHT22;8064;51.142;4.780;2022-09-02T12:42:01;28.80;48.10
15930;DHT22;8064;51.142;4.780;2022-09-02T12:44:51;28.80;48.30
15930;DHT22;8064;51.142;4.780;2022-09-02T12:49:47;28.70;48.60
15930;DHT22;8064;51.142;4.780;2022-09-02T12:55:25;28.60;48.50
15930;DHT22;8064;51.142;4.780;2022-09-02T12:58:03;28.70;48.60
15930;DHT22;8064;51.142;4.780;2022-09-02T13:09:20;28.70;47.80
15930;DHT22;8064;51.142;4.780;2022-09-02T13:31:40;28.50;47.50
15930;DHT22;8064;51.142;4.780;2022-09-02T13:34:11;28.50;47.40
15930;DHT22;8064;51.142;4.780;2022-09-02T13:36:42;28.50;47.30
15930;DHT22;8064;51.142;4.780;2022-09-02T13:39:25;28.50;47.30
15930;DHT22;8064;51.142;4.780;2022-09-02T13:41:52;28.50;47.50
15930;DHT22;8064;51.142;4.780;2022-09-02T13:44:22;28.50;47.70
15930;DHT22;8064;51.142;4.780;2022-09-02T13:46:52;28.50;47.70
15930;DHT22;8064;51.142;4.780;2022-09-02T13:49:20;28.50;47.70
15930;DHT22;8064;51.142;4.780;2022-09-02T13:51:48;28.40;47.70
15930;DHT22;8064;51.142;4.780;2022-09-02T13:54:24;28.30;47.70
15930;DHT22;8064;51.142;4.780;2022-09-02T13:56:51;28.30;47.60
15930;DHT22;8064;51.142;4.780;2022-09-02T13:59:31;28.20;47.70
15930;DHT22;8064;51.142;4.780;2022-09-02T14:01:57;28.10;47.60
15930;DHT22;8064;51.142;4.780;2022-09-02T14:04:23;28.10;47.70
15930;DHT22;8064;51.142;4.780;2022-09-02T14:06:50;28.10;47.60
15930;DHT22;8064;51.142;4.780;2022-09-02T14:09:30;28.10;47.50
15930;DHT22;8064;51.142;4.780;2022-09-02T14:11:57;28.10;47.40
15930;DHT22;8064;51.142;4.780;2022-09-02T14:14:25;28.00;47.50
15930;DHT22;8064;51.142;4.780;2022-09-02T14:16:51;28.00;47.50
15930;DHT22;8064;51.142;4.780;2022-09-02T14:22:01;27.90;47.60
15930;DHT22;8064;51.142;4.780;2022-09-02T14:24:29;27.90;47.70
15930;DHT22;8064;51.142;4.780;2022-09-02T14:27:01;27.90;47.70
15930;DHT22;8064;51.142;4.780;2022-09-02T14:29:28;27.90;48.20
15930;DHT22;8064;51.142;4.780;2022-09-02T14:32:14;27.90;47.30
15930;DHT22;8064;51.142;4.780;2022-09-02T14:34:42;27.90;47.10
15930;DHT22;8064;51.142;4.780;2022-09-02T14:37:26;27.90;47.40
15930;DHT22;8064;51.142;4.780;2022-09-02T14:40:09;27.90;47.40
15930;DHT22;8064;51.142;4.780;2022-09-02T14:42:54;28.00;47.70
15930;DHT22;8064;51.142;4.780;2022-09-02T14:45:38;28.00;47.50
15930;DHT22;8064;51.142;4.780;2022-09-02T14:51:06;28.00;47.30
15930;DHT22;8064;51.142;4.780;2022-09-02T14:53:34;28.00;47.30
15930;DHT22;8064;51.142;4.780;2022-09-02T14:56:03;28.00;47.40
15930;DHT22;8064;51.142;4.780;2022-09-02T14:58:29;27.90;47.40
15930;DHT22;8064;51.142;4.780;2022-09-02T15:00:57;28.00;47.40
15930;DHT22;8064;51.142;4.780;2022-09-02T15:03:25;27.90;47.30
15930;DHT22;8064;51.142;4.780;2022-09-02T15:05:51;27.90;47.50
15930;DHT22;8064;51.142;4.780;2022-09-02T15:08:18;27.90;47.70
15930;DHT22;8064;51.142;4.780;2022-09-02T15:10:44;27.90;47.80
15930;DHT22;8064;51.142;4.780;2022-09-02T15:13:14;27.90;47.70
15930;DHT22;8064;51.142;4.780;2022-09-02T15:15:44;27.90;47.60
15930;DHT22;8064;51.142;4.780;2022-09-02T15:18:10;27.80;47.50
15930;DHT22;8064;51.142;4.780;2022-09-02T15:20:35;27.80;47.60
15930;DHT22;8064;51.142;4.780;2022-09-02T15:23:01;27.80;47.60
15930;DHT22;8064;51.142;4.780;2022-09-02T15:25:27;27.80;47.70
15930;DHT22;8064;51.142;4.780;2022-09-02T15:27:53;27.80;47.70
15930;DHT22;8064;51.142;4.780;2022-09-02T15:30:19;27.80;47.60
15930;DHT22;8064;51.142;4.780;2022-09-02T15:32:45;27.80;47.50
15930;DHT22;8064;51.142;4.780;2022-09-02T15:35:10;27.90;47.60
15930;DHT22;8064;51.142;4.780;2022-09-02T15:37:37;27.80;47.50
15930;DHT22;8064;51.142;4.780;2022-09-02T15:40:04;27.80;47.50
15930;DHT22;8064;51.142;4.780;2022-09-02T15:42:34;27.80;47.40
15930;DHT22;8064;51.142;4.780;2022-09-02T15:45:00;27.80;47.50
15930;DHT22;8064;51.142;4.780;2022-09-02T15:47:27;27.80;47.40
15930;DHT22;8064;51.142;4.780;2022-09-02T15:49:55;27.80;47.40
15930;DHT22;8064;51.142;4.780;2022-09-02T15:52:22;27.70;47.50
15930;DHT22;8064;51.142;4.780;2022-09-02T15:54:48;27.70;47.60
15930;DHT22;8064;51.142;4.780;2022-09-02T15:57:14;27.70;47.60
15930;DHT22;8064;51.142;4.780;2022-09-02T15:59:40;27.60;47.60
15930;DHT22;8064;51.142;4.780;2022-09-02T16:02:06;27.60;47.80
15930;DHT22;8064;51.142;4.780;2022-09-02T16:04:31;27.60;48.00
15930;DHT22;8064;51.142;4.780;2022-09-02T16:06:57;27.60;48.00
15930;DHT22;8064;51.142;4.780;2022-09-02T16:09:23;27.60;47.90
15930;DHT22;8064;51.142;4.780;2022-09-02T16:11:52;27.50;48.40
15930;DHT22;8064;51.142;4.780;2022-09-02T16:14:19;27.60;47.60
15930;DHT22;8064;51.142;4.780;2022-09-02T16:16:45;27.50;48.10
15930;DHT22;8064;51.142;4.780;2022-09-02T16:19:11;27.50;47.50
15930;DHT22;8064;51.142;4.780;2022-09-02T16:21:38;27.50;47.60
15930;DHT22;8064;51.142;4.780;2022-09-02T16:24:06;27.50;47.70
15930;DHT22;8064;51.142;4.780;2022-09-02T16:26:34;27.50;47.70
15930;DHT22;8064;51.142;4.780;2022-09-02T16:29:05;27.50;47.70
15930;DHT22;8064;51.142;4.780;2022-09-02T16:31:33;27.40;47.50
15930;DHT22;8064;51.142;4.780;2022-09-02T16:34:03;27.40;47.60
15930;DHT22;8064;51.142;4.780;2022-09-02T16:36:31;27.30;47.60
15930;DHT22;8064;51.142;4.780;2022-09-02T16:38:58;27.30;47.80
15930;DHT22;8064;51.142;4.780;2022-09-02T16:41:26;27.20;47.80
15930;DHT22;8064;51.142;4.780;2022-09-02T16:43:53;27.20;47.90
15930;DHT22;8064;51.142;4.780;2022-09-02T16:46:20;27.10;47.90
15930;DHT22;8064;51.142;4.780;2022-09-02T16:48:47;27.10;47.90
15930;DHT22;8064;51.142;4.780;2022-09-02T16:51:14;27.10;48.10
15930;DHT22;8064;51.142;4.780;2022-09-02T16:53:40;27.00;48.10
15930;DHT22;8064;51.142;4.780;2022-09-02T16:56:05;27.00;48.10
15930;DHT22;8064;51.142;4.780;2022-09-02T16:58:34;27.00;48.10
15930;DHT22;8064;51.142;4.780;2022-09-02T17:01:03;26.90;48.10
15930;DHT22;8064;51.142;4.780;2022-09-02T17:03:31;26.90;48.00
15930;DHT22;8064;51.142;4.780;2022-09-02T17:05:57;26.90;48.10
15930;DHT22;8064;51.142;4.780;2022-09-02T17:08:23;26.80;48.10
15930;DHT22;8064;51.142;4.780;2022-09-02T17:10:48;26.80;48.10
15930;DHT22;8064;51.142;4.780;2022-09-02T17:13:14;26.80;48.80
15930;DHT22;8064;51.142;4.780;2022-09-02T17:15:40;26.80;48.30
15930;DHT22;8064;51.142;4.780;2022-09-02T17:18:06;26.70;48.30
15930;DHT22;8064;51.142;4.780;2022-09-02T17:20:32;26.70;48.50
15930;DHT22;8064;51.142;4.780;2022-09-02T17:22:57;26.60;48.50
15930;DHT22;8064;51.142;4.780;2022-09-02T17:25:23;26.60;48.60
15930;DHT22;8064;51.142;4.780;2022-09-02T17:27:49;26.50;48.60
15930;DHT22;8064;51.142;4.780;2022-09-02T17:30:15;26.50;49.30
15930;DHT22;8064;51.142;4.780;2022-09-02T17:32:41;26.40;48.60
15930;DHT22;8064;51.142;4.780;2022-09-02T17:35:08;26.40;48.70
15930;DHT22;8064;51.142;4.780;2022-09-02T17:37:35;26.40;48.90
15930;DHT22;8064;51.142;4.780;2022-09-02T17:40:04;26.30;49.10
15930;DHT22;8064;51.142;4.780;2022-09-02T17:42:30;26.30;49.10
15930;DHT22;8064;51.142;4.780;2022-09-02T17:44:56;26.20;49.20
15930;DHT22;8064;51.142;4.780;2022-09-02T17:47:23;26.20;49.30
15930;DHT22;8064;51.142;4.780;2022-09-02T17:49:49;26.10;49.40
15930;DHT22;8064;51.142;4.780;2022-09-02T17:52:17;26.00;49.40
15930;DHT22;8064;51.142;4.780;2022-09-02T17:54:47;25.90;49.40
15930;DHT22;8064;51.142;4.780;2022-09-02T17:57:37;25.90;49.50
15930;DHT22;8064;51.142;4.780;2022-09-02T18:00:20;25.80;49.60
15930;DHT22;8064;51.142;4.780;2022-09-02T18:03:03;25.80;49.80
15930;DHT22;8064;51.142;4.780;2022-09-02T18:06:06;25.70;50.00
15930;DHT22;8064;51.142;4.780;2022-09-02T18:11:11;25.50;50.30
15930;DHT22;8064;51.142;4.780;2022-09-02T18:13:59;25.40;50.50
15930;DHT22;8064;51.142;4.780;2022-09-02T18:24:22;25.10;50.80
15930;DHT22;8064;51.142;4.780;2022-09-02T18:27:13;25.10;50.90
15930;DHT22;8064;51.142;4.780;2022-09-02T18:35:46;24.90;51.10
15930;DHT22;8064;51.142;4.780;2022-09-02T18:38:31;24.80;51.20